Time;durP1;ratioP1;P1;durP2;ratioP2;P2;SDS_P1;SDS_P2;PMS_P1;PMS_P2;Temp;Humidity;BMP_temperature;BMP_pressure;BME280_temperature;BME280_humidity;BME280_pressure;Samples;Min_cycle;Max_cycle;Signal;HPM_P1;HPM_P2
2023/09/05 00:00:46;;;;;;;2.92;2.28;;;21.30;79.10;;;;;;5052570;28;20131;-30
2023/09/05 00:03:16;;;;;;;2.70;2.28;;;20.10;85.90;;;;;;5052363;28;20557;-38
2023/09/05 00:05:43;;;;;;;2.90;2.40;;;;;;;;;;5052880;28;20051;-36
2023/09/05 00:08:10;;;;;;;2.80;2.40;;;20.10;79.20;;;;;;5052607;28;20132;-36
2023/09/05 00:10:36;;;;;;;2.58;2.20;;;19.90;86.60;;;;;;5052817;28;20468;-36
2023/09/05 00:13:05;;;;;;;3.00;2.47;;;20.40;68.80;;;;;;5065017;28;20087;-35
2023/09/05 00:15:32;;;;;;;3.22;2.28;;;20.30;86.40;;;;;;5052296;28;20414;-34
2023/09/05 00:17:59;;;;;;;3.25;2.47;;;20.00;86.70;;;;;;5052513;28;20139;-36
2023/09/05 00:20:27;;;;;;;2.65;2.30;;;20.80;77.90;;;;;;5052391;28;20582;-37
2023/09/05 00:22:54;;;;;;;3.08;2.42;;;;;;;;;;5052068;28;20132;-35
2023/09/05 00:25:21;;;;;;;2.95;2.45;;;19.40;85.40;;;;;;5066101;28;20131;-37
2023/09/05 00:27:48;;;;;;;2.80;2.40;;;;;;;;;;5072215;28;20127;-35
2023/09/05 00:30:16;;;;;;;3.05;2.67;;;21.00;86.30;;;;;;5072414;28;20128;-39
2023/09/05 00:32:43;;;;;;;2.55;2.28;;;20.20;86.60;;;;;;5055735;28;20067;-39
2023/09/05 00:35:11;;;;;;;2.88;2.45;;;20.70;86.50;;;;;;5052072;28;20052;-35
2023/09/05 00:37:39;;;;;;;2.90;2.50;;;20.40;68.70;;;;;;5066541;28;20418;-32
2023/09/05 00:40:06;;;;;;;4.55;2.35;;;20.40;68.60;;;;;;5071593;28;20132;-35
2023/09/05 00:42:33;;;;;;;3.42;2.47;;;;;;;;;;5070754;28;20131;-35
2023/09/05 00:45:00;;;;;;;2.53;2.15;;;20.00;76.80;;;;;;5071931;28;20088;-33
2023/09/05 00:47:30;;;;;;;3.40;2.58;;;19.40;85.80;;;;;;5071950;28;20135;-38
2023/09/05 00:49:57;;;;;;;2.72;2.40;;;20.70;86.80;;;;;;5070457;28;20412;-35
2023/09/05 00:52:25;;;;;;;2.65;2.30;;;20.20;86.10;;;;;;5071760;28;20131;-38
2023/09/05 00:54:54;;;;;;;2.95;2.50;;;19.40;74.80;;;;;;5071563;28;20044;-36
2023/09/05 00:57:21;;;;;;;2.80;2.42;;;20.30;83.20;;;;;;5071716;28;20098;-36
2023/09/05 00:59:48;;;;;;;4.15;2.30;;;20.20;85.70;;;;;;5071730;28;20044;-35
2023/09/05 01:02:15;;;;;;;2.58;2.28;;;20.80;71.80;;;;;;5071559;28;20057;-34
2023/09/05 01:04:43;;;;;;;3.30;2.20;;;20.90;86.90;;;;;;5071827;28;20151;-38
2023/09/05 01:07:13;;;;;;;2.88;2.53;;;20.40;80.50;;;;;;5071535;28;20090;-36
2023/09/05 01:09:43;;;;;;;2.97;2.40;;;19.90;84.30;;;;;;5071703;28;20041;-35
2023/09/05 01:12:11;;;;;;;3.10;2.55;;;20.30;68.60;;;;;;5071815;28;20131;-34
2023/09/05 01:14:37;;;;;;;2.83;2.53;;;20.30;86.20;;;;;;5071719;28;20131;-37
2023/09/05 01:17:05;;;;;;;2.38;2.17;;;20.30;86.70;;;;;;5071378;28;20522;-37
2023/09/05 01:19:34;;;;;;;4.50;2.22;;;20.40;77.20;;;;;;5071773;28;20104;-37
2023/09/05 01:22:13;;;;;;;2.85;2.30;;;20.30;68.60;;;;;;5071351;28;20049;-32
2023/09/05 01:24:41;;;;;;;2.75;2.50;;;20.30;68.60;;;;;;5071597;28;20076;-37
2023/09/05 01:27:07;;;;;;;2.90;2.55;;;19.40;68.10;;;;;;5071447;28;20132;-35
2023/09/05 01:29:36;;;;;;;2.85;2.33;;;20.00;85.60;;;;;;5071425;28;20135;-37
2023/09/05 01:32:03;;;;;;;2.58;2.25;;;20.40;86.70;;;;;;5071410;28;20127;-37
2023/09/05 01:34:30;;;;;;;2.60;2.35;;;20.10;86.10;;;;;;5071324;28;20119;-36
2023/09/05 01:36:57;;;;;;;2.50;2.30;;;;;;;;;;5070745;28;20045;-39
2023/09/05 01:39:24;;;;;;;2.92;2.47;;;21.00;77.60;;;;;;5071424;28;20573;-36
2023/09/05 01:41:52;;;;;;;2.92;2.50;;;20.50;85.80;;;;;;5071021;28;20123;-37
2023/09/05 01:44:19;;;;;;;2.72;2.20;;;;;;;;;;5071186;28;20131;-36
2023/09/05 01:46:46;;;;;;;2.83;2.50;;;;;;;;;;5071368;28;20135;-34
2023/09/05 01:49:13;;;;;;;3.08;2.60;;;20.00;85.90;;;;;;5071334;28;20123;-38
2023/09/05 01:51:40;;;;;;;2.65;2.30;;;20.10;85.70;;;;;;5071418;28;20136;-38
2023/09/05 01:54:06;;;;;;;2.58;2.35;;;20.60;76.20;;;;;;5072433;28;20140;-36
2023/09/05 01:56:33;;;;;;;2.85;2.55;;;19.90;85.90;;;;;;5075249;28;20133;-36
2023/09/05 01:59:01;;;;;;;2.65;2.35;;;20.70;86.70;;;;;;5075150;28;20131;-39
2023/09/05 02:01:28;;;;;;;2.80;2.40;;;20.00;86.00;;;;;;5075166;28;20128;-37
2023/09/05 02:03:55;;;;;;;2.90;2.40;;;20.30;82.30;;;;;;5074738;28;20071;-36
2023/09/05 02:06:22;;;;;;;2.60;2.40;;;;;;;;;;5075006;28;20147;-39
2023/09/05 02:08:49;;;;;;;2.58;2.38;;;;;;;;;;5074601;28;20135;-34
2023/09/05 02:11:16;;;;;;;3.10;2.42;;;19.80;85.50;;;;;;5074612;28;20494;-38
2023/09/05 02:13:43;;;;;;;3.17;2.50;;;;;;;;;;5074491;28;20133;-34
2023/09/05 02:16:18;;;;;;;2.60;2.40;;;20.10;85.50;;;;;;5074745;28;20132;-36
2023/09/05 02:18:45;;;;;;;3.75;2.47;;;;;;;;;;5054818;28;20091;-36
2023/09/05 02:21:12;;;;;;;2.55;2.35;;;20.40;85.70;;;;;;5054578;28;20053;-35
2023/09/05 02:23:38;;;;;;;3.25;2.60;;;20.50;86.20;;;;;;5054008;28;20111;-37
2023/09/05 02:26:05;;;;;;;2.80;2.42;;;;;;;;;;5054695;28;20128;-34
2023/09/05 02:28:32;;;;;;;2.90;2.50;;;20.10;86.00;;;;;;5054372;28;20099;-34
2023/09/05 02:30:59;;;;;;;5.82;2.65;;;;;;;;;;5054454;28;20132;-34
2023/09/05 02:33:29;;;;;;;2.83;2.20;;;20.50;85.80;;;;;;5054062;28;20131;-35
2023/09/05 02:36:06;;;;;;;2.97;2.60;;;20.20;68.40;;;;;;5054865;28;20053;-36
2023/09/05 02:38:32;;;;;;;3.30;2.70;;;20.10;85.60;;;;;;5064637;28;20133;-37
2023/09/05 02:40:59;;;;;;;2.80;2.25;;;20.10;74.20;;;;;;5065072;28;20132;-35
2023/09/05 02:43:26;;;;;;;3.40;2.58;;;20.40;71.60;;;;;;5063171;28;20131;-36
2023/09/05 02:45:52;;;;;;;2.70;2.50;;;19.20;85.50;;;;;;5054530;28;20071;-36
2023/09/05 02:48:19;;;;;;;3.83;2.78;;;20.60;86.70;;;;;;5054283;28;20125;-35
2023/09/05 02:50:47;;;;;;;3.05;2.50;;;20.20;68.30;;;;;;5054144;28;20132;-35
2023/09/05 02:53:14;;;;;;;3.20;2.47;;;;;;;;;;5053769;28;20132;-33
2023/09/05 02:55:44;;;;;;;3.28;2.40;;;20.10;85.50;;;;;;5054140;28;20132;-35
2023/09/05 02:58:10;;;;;;;3.90;2.28;;;19.50;78.60;;;;;;5053821;28;20124;-35
2023/09/05 03:00:37;;;;;;;2.65;2.38;;;20.00;85.50;;;;;;5053848;28;20553;-39
2023/09/05 03:03:05;;;;;;;2.97;2.55;;;19.50;68.00;;;;;;5053556;28;20517;-34
2023/09/05 03:05:32;;;;;;;3.15;2.50;;;19.90;85.50;;;;;;5052850;28;20052;-35
2023/09/05 03:08:00;;;;;;;2.83;2.45;;;20.20;68.30;;;;;;5054154;28;20136;-31
2023/09/05 03:10:27;;;;;;;2.90;2.60;;;;;;;;;;5053690;28;20165;-35
2023/09/05 03:12:53;;;;;;;3.38;2.85;;;20.70;86.80;;;;;;5057233;28;20131;-35
2023/09/05 03:15:21;;;;;;;2.85;2.53;;;19.40;85.70;;;;;;5073459;28;20135;-36
2023/09/05 03:17:47;;;;;;;2.90;2.60;;;19.90;85.50;;;;;;5073831;28;20053;-37
2023/09/05 03:20:15;;;;;;;3.38;2.70;;;;;;;;;;5073455;28;20135;-35
2023/09/05 03:22:42;;;;;;;2.63;2.28;;;19.20;74.70;;;;;;5069296;28;20073;-36
2023/09/05 03:25:10;;;;;;;3.03;2.40;;;19.50;67.90;;;;;;5053338;28;20128;-35
2023/09/05 03:27:37;;;;;;;2.83;2.53;;;;;;;;;;5053715;28;20127;-32
2023/09/05 03:30:05;;;;;;;3.20;2.55;;;19.80;85.90;;;;;;5053627;28;20131;-36
2023/09/05 03:32:32;;;;;;;3.50;2.67;;;20.50;86.20;;;;;;5053339;28;20059;-34
2023/09/05 03:34:58;;;;;;;2.95;2.60;;;20.30;85.80;;;;;;5053294;28;20191;-34
2023/09/05 03:37:25;;;;;;;4.32;2.60;;;;;;;;;;5065789;28;20147;-32
2023/09/05 03:39:52;;;;;;;2.78;2.45;;;20.30;86.50;;;;;;5073028;28;20132;-35
2023/09/05 03:42:22;;;;;;;3.03;2.30;;;20.10;68.20;;;;;;5072552;28;20113;-35
2023/09/05 03:44:48;;;;;;;2.90;2.38;;;19.80;85.50;;;;;;5053246;28;20079;-36
2023/09/05 03:47:15;;;;;;;3.50;2.40;;;20.30;86.20;;;;;;5052999;28;20132;-35
2023/09/05 03:49:42;;;;;;;3.40;2.50;;;20.30;75.00;;;;;;5053123;28;20045;-38
2023/09/05 03:52:09;;;;;;;2.90;2.60;;;;;;;;;;5052708;28;20597;-33
2023/09/05 03:54:36;;;;;;;3.10;2.50;;;;;;;;;;5052786;28;20581;-33
2023/09/05 03:57:03;;;;;;;3.40;2.50;;;20.20;85.60;;;;;;5052876;28;20458;-34
2023/09/05 03:59:31;;;;;;;3.50;2.90;;;20.10;86.00;;;;;;5052915;28;20152;-38
2023/09/05 04:01:58;;;;;;;4.03;2.85;;;;;;;;;;5052797;28;20097;-35
2023/09/05 04:04:25;;;;;;;3.65;2.95;;;19.70;85.80;;;;;;5052397;28;20554;-36
2023/09/05 04:06:52;;;;;;;3.08;2.65;;;;;;;;;;5052544;28;20128;-33
2023/09/05 04:09:19;;;;;;;2.63;2.42;;;;;;;;;;5057821;28;20128;-34
2023/09/05 04:11:46;;;;;;;3.55;2.60;;;;;;;;;;5072412;28;20131;-32
2023/09/05 04:14:13;;;;;;;3.10;2.65;;;;;;;;;;5056767;28;20128;-38
2023/09/05 04:16:42;;;;;;;2.92;2.60;;;20.90;86.90;;;;;;5052210;28;20144;-30
2023/09/05 04:19:09;;;;;;;2.92;2.63;;;20.00;77.40;;;;;;5052486;28;20691;-31
2023/09/05 04:21:36;;;;;;;3.97;2.65;;;20.00;86.00;;;;;;5052177;28;20045;-30
2023/09/05 04:24:03;;;;;;;3.60;2.53;;;;;;;;;;5061159;28;20056;-31
2023/09/05 04:26:30;;;;;;;2.58;2.38;;;20.10;68.20;;;;;;5064515;28;20125;-30
2023/09/05 04:28:57;;;;;;;2.83;2.60;;;;;;;;;;5072373;28;20127;-33
2023/09/05 04:31:24;;;;;;;3.35;2.70;;;;;;;;;;5072205;28;20494;-30
2023/09/05 04:33:55;;;;;;;2.58;2.38;;;19.70;72.40;;;;;;5059778;28;20581;-31
2023/09/05 04:36:22;;;;;;;3.05;2.65;;;19.50;78.20;;;;;;5055990;28;20125;-30
2023/09/05 04:38:50;;;;;;;3.00;2.70;;;;;;;;;;5072105;28;20121;-32
2023/09/05 04:41:16;;;;;;;3.47;2.55;;;20.50;86.30;;;;;;5072168;28;20044;-30
2023/09/05 04:43:43;;;;;;;2.80;2.50;;;;;;;;;;5061187;28;20139;-32
2023/09/05 04:46:10;;;;;;;3.00;2.70;;;19.60;85.40;;;;;;5052302;28;20128;-30
2023/09/05 04:48:37;;;;;;;3.53;2.80;;;20.50;86.30;;;;;;5052436;28;20041;-31
2023/09/05 04:51:05;;;;;;;2.80;2.60;;;19.40;77.40;;;;;;5061821;28;20123;-36
2023/09/05 04:53:32;;;;;;;3.83;2.53;;;;;;;;;;5060195;28;20124;-35
2023/09/05 04:56:00;;;;;;;3.17;2.85;;;21.20;86.30;;;;;;5061006;28;20147;-39
2023/09/05 04:58:29;;;;;;;3.47;2.70;;;;;;;;;;5061111;28;20441;-36
2023/09/05 05:00:56;;;;;;;3.08;2.78;;;20.10;86.00;;;;;;5062438;28;20044;-36
2023/09/05 05:03:24;;;;;;;3.25;2.70;;;20.00;68.10;;;;;;5059394;28;20162;-37
2023/09/05 05:05:51;;;;;;;2.92;2.55;;;19.00;71.30;;;;;;5064770;28;20051;-36
2023/09/05 05:08:19;;;;;;;4.70;2.88;;;20.30;86.60;;;;;;5063345;28;20083;-38
2023/09/05 05:10:46;;;;;;;3.08;2.65;;;20.30;86.50;;;;;;5052054;28;20127;-36
2023/09/05 05:13:12;;;;;;;3.35;2.60;;;19.10;75.60;;;;;;5051619;28;20083;-37
2023/09/05 05:15:39;;;;;;;3.30;2.60;;;19.90;85.80;;;;;;5054113;28;20127;-36
2023/09/05 05:18:06;;;;;;;3.38;2.80;;;20.30;85.70;;;;;;5060865;28;20124;-38
2023/09/05 05:20:32;;;;;;;3.42;2.80;;;20.10;73.10;;;;;;5060738;28;20143;-38
2023/09/05 05:23:00;;;;;;;3.15;2.80;;;;;;;;;;5059664;28;20068;-35
2023/09/05 05:25:28;;;;;;;3.20;2.90;;;20.00;68.00;;;;;;5061721;28;20115;-32
2023/09/05 05:27:55;;;;;;;4.38;3.03;;;;;;;;;;5061983;28;20116;-38
2023/09/05 05:30:21;;;;;;;3.28;2.50;;;20.30;83.70;;;;;;5063794;28;20120;-36
2023/09/05 05:32:48;;;;;;;3.20;2.90;;;20.10;86.40;;;;;;5065006;28;20123;-36
2023/09/05 05:35:15;;;;;;;3.60;2.80;;;;;;;;;;5063478;28;20123;-32
2023/09/05 05:37:42;;;;;;;3.10;2.58;;;19.80;85.70;;;;;;5062868;28;20128;-35
2023/09/05 05:40:10;;;;;;;3.40;2.90;;;20.20;86.00;;;;;;5067441;28;20158;-40
2023/09/05 05:42:38;;;;;;;3.60;2.90;;;19.90;67.80;;;;;;5063529;28;20136;-37
2023/09/05 05:45:06;;;;;;;3.10;2.80;;;19.10;85.20;;;;;;5064062;28;20785;-34
2023/09/05 05:47:33;;;;;;;3.28;2.97;;;;;;;;;;5072304;28;20124;-35
2023/09/05 05:50:00;;;;;;;4.55;2.65;;;;;;;;;;5075425;28;20131;-33
2023/09/05 05:52:26;;;;;;;3.35;3.03;;;20.00;85.40;;;;;;5074850;28;20132;-39
2023/09/05 05:54:53;;;;;;;3.33;2.97;;;20.10;85.40;;;;;;5075215;28;20132;-36
2023/09/05 05:57:20;;;;;;;2.97;2.67;;;19.90;79.70;;;;;;5075283;28;20053;-38
2023/09/05 05:59:48;;;;;;;3.65;2.75;;;20.10;85.90;;;;;;5075307;28;20076;-36
2023/09/05 06:02:15;;;;;;;3.25;2.83;;;20.20;86.40;;;;;;5070984;28;20120;-37
2023/09/05 06:04:42;;;;;;;3.72;2.80;;;;;;;;;;5064361;28;20055;-35
2023/09/05 06:07:09;;;;;;;4.10;3.00;;;19.60;85.30;;;;;;5065630;28;20128;-39
2023/09/05 06:09:35;;;;;;;5.20;3.17;;;19.50;85.20;;;;;;5064076;28;20124;-39
2023/09/05 06:12:02;;;;;;;3.17;2.88;;;;;;;;;;5063274;28;20123;-32
2023/09/05 06:14:29;;;;;;;3.40;2.80;;;18.80;85.20;;;;;;5063420;28;20124;-36
2023/09/05 06:16:57;;;;;;;4.32;3.03;;;20.20;85.60;;;;;;5064626;28;20098;-36
2023/09/05 06:19:24;;;;;;;3.33;2.90;;;20.20;86.10;;;;;;5065198;28;20706;-39
2023/09/05 06:21:51;;;;;;;3.10;2.80;;;19.70;77.80;;;;;;5060666;28;20146;-37
2023/09/05 06:24:18;;;;;;;3.45;2.80;;;19.80;85.80;;;;;;5066716;28;20086;-35
2023/09/05 06:26:45;;;;;;;3.30;2.90;;;;;;;;;;5062535;28;20405;-38
2023/09/05 06:29:12;;;;;;;3.22;2.72;;;19.10;85.00;;;;;;5070720;28;20140;-39
2023/09/05 06:31:39;;;;;;;2.90;2.60;;;20.40;72.10;;;;;;5069749;28;20123;-35
2023/09/05 06:34:07;;;;;;;4.28;3.08;;;19.50;85.60;;;;;;5056727;28;20120;-36
2023/09/05 06:36:34;;;;;;;3.47;3.00;;;;;;;;;;5061837;28;20135;-38
2023/09/05 06:39:01;;;;;;;3.38;2.95;;;;;;;;;;5073094;28;20474;-34
2023/09/05 06:41:29;;;;;;;3.05;2.70;;;;;;;;;;5074048;28;20488;-32
2023/09/05 06:43:55;;;;;;;3.50;2.80;;;20.10;81.20;;;;;;5067897;28;20045;-36
2023/09/05 06:46:22;;;;;;;3.05;2.75;;;19.60;85.30;;;;;;5059223;28;20556;-37
2023/09/05 06:48:49;;;;;;;3.35;2.80;;;20.30;78.30;;;;;;5059612;28;20131;-37
2023/09/05 06:51:17;;;;;;;3.33;2.97;;;19.30;72.30;;;;;;5061255;28;20453;-31
2023/09/05 06:53:43;;;;;;;3.40;2.80;;;19.60;70.30;;;;;;5073991;28;20148;-31
2023/09/05 06:56:10;;;;;;;3.25;2.80;;;;;;;;;;5074361;28;20132;-29
2023/09/05 06:58:38;;;;;;;3.00;2.70;;;;;;;;;;5073906;28;20127;-33
2023/09/05 07:01:07;;;;;;;2.88;2.55;;;19.60;85.20;;;;;;5073469;28;20123;-30
2023/09/05 07:03:34;;;;;;;3.10;2.53;;;20.30;78.00;;;;;;5073414;28;20131;-32
2023/09/05 07:06:03;;;;;;;2.80;2.50;;;20.60;85.80;;;;;;5073649;28;20135;-38
2023/09/05 07:08:31;;;;;;;2.92;2.53;;;18.90;84.90;;;;;;5074258;28;20041;-39
2023/09/05 07:10:57;;;;;;;2.78;2.30;;;19.60;86.10;;;;;;5069018;28;20137;-39
2023/09/05 07:13:25;;;;;;;3.20;2.40;;;19.60;80.30;;;;;;5053686;28;20083;-36
2023/09/05 07:15:52;;;;;;;2.92;2.58;;;19.40;85.30;;;;;;5053961;28;20060;-37
2023/09/05 07:18:19;;;;;;;2.90;2.60;;;20.10;85.60;;;;;;5053561;28;20498;-38
2023/09/05 07:20:45;;;;;;;3.25;2.70;;;19.80;85.50;;;;;;5056085;28;20124;-38
2023/09/05 07:23:12;;;;;;;2.85;2.30;;;;;;;;;;5073282;28;20565;-35
2023/09/05 07:25:40;;;;;;;3.22;2.70;;;20.90;86.40;;;;;;5063215;28;20041;-37
2023/09/05 07:28:07;;;;;;;3.13;2.33;;;19.50;86.10;;;;;;5071209;28;20577;-36
2023/09/05 07:30:34;;;;;;;4.28;2.33;;;19.80;79.20;;;;;;5068937;28;20128;-39
2023/09/05 07:33:01;;;;;;;2.67;2.47;;;20.30;73.80;;;;;;5052837;28;20132;-32
2023/09/05 07:35:27;;;;;;;3.33;2.40;;;19.90;85.50;;;;;;5053476;28;20091;-36
2023/09/05 07:37:54;;;;;;;4.15;2.60;;;19.60;85.80;;;;;;5070145;28;20127;-38
2023/09/05 07:40:23;;;;;;;3.05;2.22;;;;;;;;;;5069810;28;20515;-33
2023/09/05 07:42:51;;;;;;;2.97;2.33;;;20.20;86.60;;;;;;5052847;28;20123;-39
2023/09/05 07:45:18;;;;;;;2.90;2.10;;;19.80;85.50;;;;;;5055617;28;20566;-37
2023/09/05 07:47:45;;;;;;;2.33;2.10;;;;;;;;;;5055926;28;20124;-32
2023/09/05 07:50:12;;;;;;;2.40;2.20;;;;;;;;;;5059352;28;20147;-37
2023/09/05 07:52:39;;;;;;;3.33;2.40;;;;;;;;;;5052571;28;20150;-33
2023/09/05 07:55:07;;;;;;;2.75;2.30;;;19.60;85.40;;;;;;5064590;28;20079;-37
2023/09/05 07:57:35;;;;;;;15.05;2.30;;;19.80;83.70;;;;;;5073023;28;20132;-38
2023/09/05 08:00:03;;;;;;;5.03;2.10;;;18.70;76.70;;;;;;5072254;28;20579;-33
2023/09/05 08:02:30;;;;;;;2.50;1.90;;;19.30;86.10;;;;;;5072239;28;20839;-40
2023/09/05 08:04:59;;;;;;;2.33;2.00;;;20.50;86.00;;;;;;5072936;28;20058;-30
2023/09/05 08:07:26;;;;;;;3.67;2.22;;;20.00;82.30;;;;;;5073023;28;20386;-32
2023/09/05 08:09:53;;;;;;;2.33;2.13;;;20.70;82.00;;;;;;5072481;28;20088;-30
2023/09/05 08:12:20;;;;;;;2.67;2.25;;;19.60;85.40;;;;;;5051453;28;20156;-30
2023/09/05 08:14:46;;;;;;;2.88;2.40;;;20.20;86.20;;;;;;5052500;28;20123;-30
2023/09/05 08:17:14;;;;;;;3.97;2.47;;;20.50;86.40;;;;;;5052436;28;20468;-30
2023/09/05 08:19:41;;;;;;;3.83;2.38;;;19.70;85.80;;;;;;5052075;28;20506;-30
2023/09/05 08:22:08;;;;;;;2.83;2.13;;;;;;;;;;5070063;28;20131;-32
2023/09/05 08:24:35;;;;;;;2.78;1.88;;;19.60;85.40;;;;;;5071694;28;20136;-31
2023/09/05 08:27:04;;;;;;;3.28;2.25;;;;;;;;;;5071960;28;20135;-33
2023/09/05 08:29:31;;;;;;;3.30;2.30;;;19.80;86.00;;;;;;5072476;28;20045;-30
2023/09/05 08:31:58;;;;;;;5.50;2.35;;;19.60;85.60;;;;;;5060977;28;20119;-31
2023/09/05 08:34:26;;;;;;;3.05;2.03;;;20.30;78.20;;;;;;5061984;28;20154;-30
2023/09/05 08:36:53;;;;;;;2.90;2.30;;;19.60;77.50;;;;;;5060356;28;20454;-31
2023/09/05 08:39:19;;;;;;;3.20;2.30;;;20.10;86.10;;;;;;5062080;28;20047;-32
2023/09/05 08:41:47;;;;;;;4.05;2.40;;;;;;;;;;5060867;28;20442;-32
2023/09/05 08:44:14;;;;;;;3.78;2.55;;;21.00;86.50;;;;;;5062771;28;20051;-35
2023/09/05 08:46:41;;;;;;;3.28;2.00;;;19.70;85.10;;;;;;5061912;28;20059;-35
2023/09/05 08:49:08;;;;;;;4.82;2.38;;;20.00;79.30;;;;;;5058675;28;20550;-39
2023/09/05 08:51:39;;;;;;;4.70;2.50;;;19.90;68.30;;;;;;5062431;28;20129;-34
2023/09/05 08:54:06;;;;;;;4.20;2.33;;;19.50;86.10;;;;;;5060791;28;20581;-35
2023/09/05 08:56:33;;;;;;;3.42;2.33;;;;;;;;;;5062483;28;20052;-34
2023/09/05 08:59:01;;;;;;;4.85;3.13;;;19.60;85.50;;;;;;5060368;28;20124;-38
2023/09/05 09:01:29;;;;;;;3.17;2.10;;;19.80;84.10;;;;;;5060699;28;20048;-35
2023/09/05 09:03:56;;;;;;;4.25;2.20;;;;;;;;;;5052148;28;20049;-35
2023/09/05 09:06:24;;;;;;;4.95;2.40;;;19.90;68.40;;;;;;5051935;28;20131;-33
2023/09/05 09:08:52;;;;;;;4.10;2.63;;;18.80;85.20;;;;;;5066019;28;20052;-35
2023/09/05 09:11:20;;;;;;;3.28;2.20;;;19.80;85.80;;;;;;5071495;28;20080;-38
2023/09/05 09:13:47;;;;;;;3.47;2.25;;;20.30;86.00;;;;;;5071755;28;20131;-38
2023/09/05 09:16:17;;;;;;;3.53;2.45;;;21.10;78.30;;;;;;5071945;28;20127;-35
2023/09/05 09:18:44;;;;;;;4.05;2.60;;;;;;;;;;5058112;28;20077;-39
2023/09/05 09:21:11;;;;;;;3.67;2.45;;;20.40;86.10;;;;;;5051582;28;20103;-38
2023/09/05 09:23:40;;;;;;;3.30;2.35;;;;;;;;;;5051133;28;20052;-33
2023/09/05 09:26:08;;;;;;;4.25;2.10;;;19.50;85.60;;;;;;5051718;28;20053;-35
2023/09/05 09:28:37;;;;;;;4.68;2.50;;;20.10;86.70;;;;;;5063683;28;20120;-35
2023/09/05 09:31:05;;;;;;;3.75;2.28;;;20.90;87.20;;;;;;5071781;28;20044;-37
2023/09/05 09:33:32;;;;;;;4.97;2.05;;;20.00;86.30;;;;;;5071418;28;20056;-29
2023/09/05 09:36:09;;;;;;;4.25;2.15;;;19.90;82.50;;;;;;5070913;28;20072;-30
2023/09/05 09:38:36;;;;;;;3.60;2.17;;;20.10;86.30;;;;;;5070858;28;20044;-34
2023/09/05 09:41:04;;;;;;;4.10;2.40;;;20.00;68.50;;;;;;5071509;28;20131;-34
2023/09/05 09:43:32;;;;;;;2.88;1.90;;;20.10;68.50;;;;;;5070127;28;20084;-33
2023/09/05 09:45:59;;;;;;;3.28;2.00;;;20.20;71.60;;;;;;5071636;28;20136;-34
2023/09/05 09:48:27;;;;;;;3.05;2.13;;;19.70;85.60;;;;;;5063092;28;20143;-36
2023/09/05 09:50:54;;;;;;;3.78;2.28;;;20.30;77.00;;;;;;5071473;28;20075;-36
2023/09/05 09:53:29;;;;;;;3.33;2.20;;;20.50;85.50;;;;;;5071147;28;20135;-39
2023/09/05 09:55:56;;;;;;;4.35;1.98;;;;;;;;;;5068861;28;20147;-34
2023/09/05 09:58:22;;;;;;;6.70;2.40;;;20.10;84.20;;;;;;5059519;28;20119;-35
2023/09/05 10:00:50;;;;;;;4.03;2.22;;;20.40;74.90;;;;;;5061747;28;20132;-37
2023/09/05 10:03:17;;;;;;;3.55;2.30;;;20.20;72.80;;;;;;5059327;28;20476;-38
2023/09/05 10:05:44;;;;;;;3.22;2.17;;;19.90;73.60;;;;;;5061853;28;20124;-34
2023/09/05 10:08:11;;;;;;;4.03;2.03;;;;;;;;;;5059893;28;20049;-34
2023/09/05 10:10:38;;;;;;;3.33;1.90;;;19.50;85.70;;;;;;5059606;28;20128;-38
2023/09/05 10:13:06;;;;;;;3.83;1.98;;;;;;;;;;5060658;28;20509;-32
2023/09/05 10:15:33;;;;;;;4.05;2.13;;;21.10;86.40;;;;;;5063689;28;20128;-31
2023/09/05 10:18:01;;;;;;;3.50;1.92;;;19.90;71.00;;;;;;5063353;28;20075;-31
2023/09/05 10:20:28;;;;;;;2.55;2.00;;;20.20;69.30;;;;;;5064529;28;20140;-33
2023/09/05 10:22:54;;;;;;;2.65;2.00;;;19.70;86.00;;;;;;5055139;28;20561;-30
2023/09/05 10:25:21;;;;;;;5.15;2.00;;;20.70;86.10;;;;;;5054722;28;20053;-31
2023/09/05 10:27:49;;;;;;;3.47;1.98;;;20.60;73.30;;;;;;5072076;28;20574;-30
2023/09/05 10:30:19;;;;;;;2.80;2.20;;;;;;;;;;5074398;28;20123;-34
2023/09/05 10:32:47;;;;;;;4.55;2.30;;;20.20;70.60;;;;;;5074048;28;20048;-34
2023/09/05 10:35:18;;;;;;;5.03;2.05;;;19.60;84.90;;;;;;5074568;28;20060;-36
2023/09/05 10:37:50;;;;;;;2.55;1.88;;;20.40;68.80;;;;;;5072104;28;20044;-36
2023/09/05 10:40:18;;;;;;;3.47;2.08;;;;;;;;;;5074232;28;20072;-39
2023/09/05 10:42:50;;;;;;;2.67;2.10;;;20.10;86.00;;;;;;5073903;28;20052;-37
2023/09/05 10:45:18;;;;;;;2.40;2.10;;;20.30;68.00;;;;;;5074447;28;20127;-35
2023/09/05 10:47:45;;;;;;;2.63;2.20;;;20.10;83.00;;;;;;5056549;28;20133;-34
2023/09/05 10:50:15;;;;;;;2.75;1.92;;;20.00;85.20;;;;;;5052961;28;20406;-30
2023/09/05 10:52:44;;;;;;;2.22;1.70;;;20.40;85.50;;;;;;5054084;28;20454;-31
2023/09/05 10:55:39;;;;;;;2.60;1.70;;;20.20;71.70;;;;;;5054179;28;20056;-31
2023/09/05 10:58:31;;;;;;;2.63;1.80;;;20.00;75.40;;;;;;5054185;28;20124;-31
2023/09/05 11:01:00;;;;;;;3.45;1.85;;;20.20;85.10;;;;;;5065346;28;20131;-32
2023/09/05 11:03:34;;;;;;;3.55;2.20;;;20.30;67.80;;;;;;5073835;28;20052;-31
2023/09/05 11:06:01;;;;;;;3.42;2.00;;;;;;;;;;5071639;28;20053;-33
2023/09/05 11:08:30;;;;;;;4.03;2.00;;;20.00;85.80;;;;;;5056623;28;20136;-31
2023/09/05 11:10:56;;;;;;;3.03;1.80;;;21.10;85.50;;;;;;5059200;28;20135;-30
2023/09/05 11:13:23;;;;;;;1.85;1.60;;;;;;;;;;5062132;28;20124;-33
2023/09/05 11:15:58;;;;;;;2.92;2.03;;;19.50;84.60;;;;;;5064366;28;20132;-30
2023/09/05 11:18:24;;;;;;;2.47;1.80;;;20.90;85.60;;;;;;5063586;28;20458;-31
2023/09/05 11:20:51;;;;;;;2.72;1.90;;;21.50;85.60;;;;;;5064035;28;20128;-30
2023/09/05 11:23:20;;;;;;;4.57;1.90;;;19.70;81.00;;;;;;5061950;28;20455;-30
2023/09/05 11:25:50;;;;;;;3.53;1.90;;;20.40;85.30;;;;;;5060391;28;20048;-31
2023/09/05 11:28:17;;;;;;;2.83;2.10;;;19.90;85.10;;;;;;5063832;28;20051;-31
2023/09/05 11:30:45;;;;;;;1.95;1.70;;;20.80;76.30;;;;;;5070551;28;20734;-31
2023/09/05 11:33:13;;;;;;;2.28;1.70;;;;;;;;;;5064264;28;20493;-35
2023/09/05 11:35:41;;;;;;;1.90;1.70;;;19.30;80.00;;;;;;5073241;28;20501;-30
2023/09/05 11:38:07;;;;;;;3.22;1.95;;;20.10;84.80;;;;;;5057074;28;20410;-30
2023/09/05 11:40:35;;;;;;;2.40;1.95;;;;;;;;;;5068702;28;20132;-32
2023/09/05 11:43:04;;;;;;;2.78;1.77;;;20.50;67.70;;;;;;5072101;28;20051;-34
2023/09/05 11:45:30;;;;;;;2.70;1.88;;;20.70;79.40;;;;;;5053075;28;20147;-31
2023/09/05 11:47:57;;;;;;;2.47;2.00;;;20.50;84.90;;;;;;5053451;28;20052;-32
2023/09/05 11:50:24;;;;;;;2.50;1.80;;;20.50;84.90;;;;;;5053135;28;20084;-30
2023/09/05 11:52:51;;;;;;;3.20;2.00;;;20.30;82.10;;;;;;5052726;28;20137;-31
2023/09/05 11:55:21;;;;;;;4.07;1.90;;;21.10;85.20;;;;;;5053144;28;20049;-30
2023/09/05 11:57:50;;;;;;;2.30;1.92;;;20.80;85.00;;;;;;5053002;28;20059;-30
2023/09/05 12:00:19;;;;;;;2.78;1.92;;;20.00;73.50;;;;;;5053189;28;20049;-31
2023/09/05 12:02:45;;;;;;;3.17;1.98;;;20.20;85.00;;;;;;5052789;28;20095;-31
2023/09/05 12:05:12;;;;;;;2.40;1.67;;;20.30;85.10;;;;;;5052594;28;20509;-31
2023/09/05 12:07:39;;;;;;;5.00;2.03;;;20.70;74.40;;;;;;5052968;28;20132;-34
2023/09/05 12:10:09;;;;;;;3.72;1.90;;;21.10;86.00;;;;;;5052837;28;20052;-32
2023/09/05 12:12:35;;;;;;;3.22;2.20;;;20.80;84.90;;;;;;5052934;28;20071;-30
2023/09/05 12:15:04;;;;;;;4.13;1.70;;;20.10;84.60;;;;;;5052026;28;20128;-35
2023/09/05 12:17:32;;;;;;;3.17;2.08;;;20.30;84.70;;;;;;5069929;28;20551;-38
2023/09/05 12:19:58;;;;;;;2.10;1.60;;;20.20;85.20;;;;;;5072176;28;20127;-38
2023/09/05 12:22:27;;;;;;;2.50;1.90;;;20.60;67.50;;;;;;5052379;28;20140;-32
2023/09/05 12:25:10;;;;;;;2.33;1.65;;;21.20;69.50;;;;;;5052490;28;20045;-36
2023/09/05 12:27:38;;;;;;;4.40;1.95;;;21.20;85.90;;;;;;5055131;28;20128;-34
2023/09/05 12:30:07;;;;;;;2.60;1.70;;;20.70;85.50;;;;;;5052156;28;20390;-38
2023/09/05 12:32:37;;;;;;;2.33;1.70;;;20.70;77.70;;;;;;5071863;28;20056;-37
2023/09/05 12:35:04;;;;;;;2.80;1.55;;;20.50;84.90;;;;;;5070713;28;20641;-37
2023/09/05 12:37:31;;;;;;;2.95;1.70;;;20.60;84.40;;;;;;5069749;28;20056;-35
2023/09/05 12:39:57;;;;;;;2.60;1.67;;;21.20;74.40;;;;;;5070057;28;20048;-35
2023/09/05 12:42:25;;;;;;;1.90;1.55;;;20.30;77.70;;;;;;5069857;28;20084;-38
2023/09/05 12:44:52;;;;;;;2.80;1.80;;;20.00;82.00;;;;;;5070420;28;20048;-38
2023/09/05 12:47:19;;;;;;;2.60;1.90;;;20.70;78.10;;;;;;5070068;28;20072;-36
2023/09/05 12:49:47;;;;;;;2.63;1.73;;;20.40;84.30;;;;;;5070669;28;20463;-37
2023/09/05 12:52:14;;;;;;;3.88;1.70;;;;;;;;;;5071325;28;20049;-33
2023/09/05 12:54:44;;;;;;;2.90;1.67;;;20.60;84.40;;;;;;5072030;28;20067;-30
2023/09/05 12:57:11;;;;;;;3.88;1.90;;;;;;;;;;5072194;28;20146;-34
2023/09/05 12:59:38;;;;;;;2.63;1.80;;;20.70;84.70;;;;;;5072011;28;20044;-31
2023/09/05 13:02:05;;;;;;;4.43;1.67;;;;;;;;;;5071585;28;20135;-33
2023/09/05 13:04:32;;;;;;;3.95;1.90;;;21.20;84.60;;;;;;5071721;28;20084;-31
2023/09/05 13:07:00;;;;;;;3.83;1.90;;;20.80;85.10;;;;;;5072120;28;20588;-30
2023/09/05 13:09:26;;;;;;;2.22;1.70;;;20.80;84.50;;;;;;5072041;28;20132;-30
2023/09/05 13:11:53;;;;;;;3.72;1.67;;;20.90;77.30;;;;;;5071767;28;20094;-31